Time;durP1;ratioP1;P1;durP2;ratioP2;P2;SDS_P1;SDS_P2;PMS_P1;PMS_P2;Temp;Humidity;BMP_temperature;BMP_pressure;BME280_temperature;BME280_humidity;BME280_pressure;Samples;Min_cycle;Max_cycle;Signal;HPM_P1;HPM_P2
2022/05/18 00:00:27;;;;;;;4.93;1.77;;;;;;;;;;5057233;28;20055;-77
2022/05/18 00:02:55;;;;;;;2.60;1.90;;;;;;;;;;5074138;28;20482;-77
2022/05/18 00:05:20;;;;;;;3.20;1.70;;;;;;;;;;5057216;28;20033;-77
2022/05/18 00:07:46;;;;;;;2.67;1.60;;;;;;;;;;5057306;28;20455;-76
2022/05/18 00:10:11;;;;;;;4.97;2.15;;;;;;;;;;5057322;28;20039;-77
2022/05/18 00:12:43;;;;;;;3.60;2.20;;;;;;;;;;5073856;28;20047;-77
2022/05/18 00:15:09;;;;;;;4.03;1.98;;;;;;;;;;5040345;28;20332;-77
2022/05/18 00:17:35;;;;;;;3.33;2.05;;;;;;;;;;5075280;28;20036;-77
2022/05/18 00:20:01;;;;;;;3.40;1.60;;;;;;;;;;5057328;28;20036;-77
2022/05/18 00:22:26;;;;;;;3.80;1.85;;;;;;;;;;5040648;28;20352;-77
2022/05/18 00:24:51;;;;;;;4.88;2.15;;;;;;;;;;5073193;28;20425;-77
2022/05/18 00:27:17;;;;;;;5.10;2.42;;;;;;;;;;5073255;28;20031;-77
2022/05/18 00:29:42;;;;;;;3.85;2.33;;;;;;;;;;5074909;28;20478;-77
2022/05/18 00:32:08;;;;;;;3.60;1.85;;;;;;;;;;5073602;28;20102;-77
2022/05/18 00:34:33;;;;;;;3.60;1.77;;;;;;;;;;5056664;28;20082;-76
2022/05/18 00:36:59;;;;;;;3.78;2.00;;;;;;;;;;5074728;28;20383;-77
2022/05/18 00:39:24;;;;;;;7.05;2.15;;;;;;;;;;5073297;28;20032;-77
2022/05/18 00:41:49;;;;;;;3.63;2.10;;;;;;;;;;5040402;28;20092;-77
2022/05/18 00:44:15;;;;;;;3.35;1.80;;;;;;;;;;5056747;28;20187;-77
2022/05/18 00:46:40;;;;;;;3.92;1.90;;;;;;;;;;5073103;28;20032;-77
2022/05/18 00:49:07;;;;;;;3.15;1.92;;;;;;;;;;5073121;28;20233;-77
2022/05/18 00:51:43;;;;;;;4.53;2.10;;;;;;;;;;5056605;28;20416;-77
2022/05/18 00:54:20;;;;;;;3.72;1.83;;;;;;;;;;5056428;28;20063;-77
2022/05/18 00:57:00;;;;;;;2.53;1.90;;;;;;;;;;5056181;28;20020;-77
2022/05/18 00:59:30;;;;;;;2.92;1.98;;;;;;;;;;5056139;28;20479;-77
2022/05/18 01:01:57;;;;;;;4.80;2.13;;;;;;;;;;5056124;28;20063;-77
2022/05/18 01:04:23;;;;;;;3.03;2.00;;;;;;;;;;5073022;28;20024;-77
2022/05/18 01:06:51;;;;;;;3.15;1.85;;;;;;;;;;5039513;28;20020;-77
2022/05/18 01:09:24;;;;;;;3.58;2.05;;;;;;;;;;5072989;28;20025;-77
2022/05/18 01:11:50;;;;;;;3.65;2.20;;;;;;;;;;5072994;28;20090;-77
2022/05/18 01:14:51;;;;;;;4.25;2.30;;;;;;;;;;5056118;28;20463;-77
2022/05/18 01:17:19;;;;;;;2.60;2.08;;;;;;;;;;5015428;28;20041;-77
2022/05/18 01:19:50;;;;;;;4.03;2.15;;;;;;;;;;5015333;28;20033;-78
2022/05/18 01:22:57;;;;;;;3.17;2.08;;;;;;;;;;5031863;28;20056;-77
2022/05/18 01:25:34;;;;;;;3.83;2.05;;;;;;;;;;4953480;28;20541;-77
2022/05/18 01:28:01;;;;;;;5.38;2.20;;;;;;;;;;4953706;29;20113;-77
2022/05/18 01:30:29;;;;;;;3.97;2.50;;;;;;;;;;4981170;28;20217;-77
2022/05/18 01:32:57;;;;;;;6.30;2.38;;;;;;;;;;4998610;28;20048;-78
2022/05/18 01:35:26;;;;;;;4.97;2.67;;;;;;;;;;4998497;28;20022;-77
2022/05/18 01:37:57;;;;;;;3.85;2.20;;;;;;;;;;5014770;28;20038;-77
2022/05/18 01:40:41;;;;;;;3.28;2.10;;;;;;;;;;4998990;28;20032;-77
2022/05/18 01:43:12;;;;;;;;;;;;;;;;;;5015266;28;20032;-77
2022/05/18 01:45:37;;;;;;;3.55;1.95;;;;;;;;;;5031191;28;19917;-77
2022/05/18 01:48:15;;;;;;;4.38;2.50;;;;;;;;;;5030989;28;20367;-76
2022/05/18 01:50:41;;;;;;;3.58;2.38;;;;;;;;;;5008863;28;20479;-77
2022/05/18 01:53:07;;;;;;;3.75;2.30;;;;;;;;;;5055080;28;20593;-76
2022/05/18 01:55:32;;;;;;;3.30;1.88;;;;;;;;;;5071536;28;20099;-77
2022/05/18 01:57:58;;;;;;;3.80;2.60;;;;;;;;;;5055263;28;20115;-77
2022/05/18 02:00:24;;;;;;;3.58;2.13;;;;;;;;;;5071322;28;20120;-77
2022/05/18 02:02:50;;;;;;;4.85;2.50;;;;;;;;;;5072886;28;20439;-77
2022/05/18 02:05:15;;;;;;;5.25;2.58;;;;;;;;;;5054456;28;20043;-77
2022/05/18 02:07:41;;;;;;;2.78;2.10;;;;;;;;;;5054721;28;20107;-77
2022/05/18 02:10:06;;;;;;;4.32;2.42;;;;;;;;;;5054787;28;20032;-77
2022/05/18 02:12:32;;;;;;;5.75;2.45;;;;;;;;;;5055487;28;20025;-77
2022/05/18 02:14:58;;;;;;;5.22;2.17;;;;;;;;;;5054720;28;20511;-77
2022/05/18 02:17:24;;;;;;;8.05;2.13;;;;;;;;;;5054787;28;20056;-77
2022/05/18 02:19:49;;;;;;;4.72;2.70;;;;;;;;;;5071428;28;20064;-77
2022/05/18 02:22:15;;;;;;;3.70;2.15;;;;;;;;;;5072617;28;20056;-77
2022/05/18 02:24:40;;;;;;;3.42;2.20;;;;;;;;;;5054359;28;20028;-76
2022/05/18 02:27:06;;;;;;;4.88;2.60;;;;;;;;;;5054527;28;20028;-77
2022/05/18 02:29:31;;;;;;;4.15;2.38;;;;;;;;;;5070085;28;20493;-76
2022/05/18 02:31:56;;;;;;;4.07;2.55;;;;;;;;;;5070843;28;20471;-77
2022/05/18 02:34:22;;;;;;;3.53;2.10;;;;;;;;;;5053933;28;20059;-77
2022/05/18 02:36:48;;;;;;;4.10;2.15;;;;;;;;;;5053946;28;20390;-77
2022/05/18 02:39:14;;;;;;;2.50;2.30;;;;;;;;;;5054341;28;20416;-76
2022/05/18 02:41:39;;;;;;;5.25;2.30;;;;;;;;;;5053876;28;20055;-76
2022/05/18 02:44:05;;;;;;;6.30;2.20;;;;;;;;;;5050217;28;20055;-76
2022/05/18 02:46:31;;;;;;;3.53;2.30;;;;;;;;;;5035304;28;20348;-76
2022/05/18 02:48:57;;;;;;;3.45;2.30;;;;;;;;;;5070647;28;20036;-76
2022/05/18 02:51:22;;;;;;;2.85;2.22;;;;;;;;;;5069293;28;20016;-77
2022/05/18 02:53:48;;;;;;;4.75;2.90;;;;;;;;;;5071509;28;20101;-77
2022/05/18 02:56:17;;;;;;;5.80;2.97;;;;;;;;;;5052685;28;20029;-77
2022/05/18 02:58:47;;;;;;;2.72;2.00;;;;;;;;;;5036621;28;20032;-77
2022/05/18 03:01:15;;;;;;;4.65;2.75;;;;;;;;;;5070254;28;20040;-77
2022/05/18 03:03:41;;;;;;;4.07;2.55;;;;;;;;;;5053907;28;20027;-77
2022/05/18 03:06:08;;;;;;;4.60;2.58;;;;;;;;;;5053563;28;20033;-76
2022/05/18 03:08:35;;;;;;;2.70;2.10;;;;;;;;;;5052263;28;20021;-77
2022/05/18 03:11:01;;;;;;;3.35;2.42;;;;;;;;;;5053251;28;20041;-77
2022/05/18 03:13:27;;;;;;;5.00;2.55;;;;;;;;;;5053537;28;20043;-77
2022/05/18 03:15:52;;;;;;;3.63;2.60;;;;;;;;;;5071671;28;20025;-77
2022/05/18 03:18:18;;;;;;;3.55;2.17;;;;;;;;;;5070401;28;20470;-77
2022/05/18 03:23:33;;;;;;;3.53;2.35;;;;;;;;;;5072228;28;20162;-77
2022/05/18 03:26:08;;;;;;;3.15;2.33;;;;;;;;;;5070540;28;20185;-77
2022/05/18 03:28:33;;;;;;;3.20;2.13;;;;;;;;;;5070290;28;20024;-77
2022/05/18 03:30:59;;;;;;;2.45;2.25;;;;;;;;;;5053389;28;20040;-77
2022/05/18 03:33:24;;;;;;;4.40;2.20;;;;;;;;;;5053351;28;20029;-77
2022/05/18 03:35:50;;;;;;;2.60;2.03;;;;;;;;;;5070153;28;20058;-76
2022/05/18 03:38:17;;;;;;;4.10;2.30;;;;;;;;;;5069874;28;20033;-76
2022/05/18 03:40:43;;;;;;;5.45;2.40;;;;;;;;;;5053431;28;20028;-77
2022/05/18 03:43:08;;;;;;;3.08;2.10;;;;;;;;;;5053529;28;20474;-76
2022/05/18 03:45:34;;;;;;;6.38;2.45;;;;;;;;;;5069757;28;20200;-76
2022/05/18 03:48:00;;;;;;;4.15;2.70;;;;;;;;;;5070110;28;20032;-77
2022/05/18 03:50:28;;;;;;;3.28;2.30;;;;;;;;;;5070276;28;20028;-77
2022/05/18 03:52:54;;;;;;;2.90;2.50;;;;;;;;;;5071479;28;20494;-77
2022/05/18 03:55:20;;;;;;;2.13;1.92;;;;;;;;;;5053285;28;20131;-77
2022/05/18 03:57:45;;;;;;;2.28;2.08;;;;;;;;;;5069737;28;20063;-77
2022/05/18 04:00:11;;;;;;;4.30;2.28;;;;;;;;;;5069736;28;20048;-77
2022/05/18 04:02:36;;;;;;;3.28;2.28;;;;;;;;;;5073537;28;20110;-77
2022/05/18 04:05:02;;;;;;;2.83;2.30;;;;;;;;;;5073861;28;20031;-77
2022/05/18 04:07:27;;;;;;;3.45;2.35;;;;;;;;;;5056498;28;20032;-77
2022/05/18 04:09:53;;;;;;;4.10;2.40;;;;;;;;;;5040212;28;20025;-77
2022/05/18 04:12:18;;;;;;;3.55;2.15;;;;;;;;;;5073505;28;20032;-80
2022/05/18 04:14:44;;;;;;;4.97;2.50;;;;;;;;;;5073625;28;20099;-78
2022/05/18 04:17:09;;;;;;;5.50;2.70;;;;;;;;;;5056660;28;20030;-77
2022/05/18 04:19:35;;;;;;;5.45;2.60;;;;;;;;;;5073564;28;20090;-77
2022/05/18 04:22:00;;;;;;;6.90;3.00;;;;;;;;;;5073484;28;20016;-77
2022/05/18 04:24:26;;;;;;;7.32;2.70;;;;;;;;;;5073563;28;20032;-77
2022/05/18 04:26:51;;;;;;;13.95;3.28;;;;;;;;;;5056374;28;20028;-78
2022/05/18 04:29:17;;;;;;;7.13;3.10;;;;;;;;;;5056259;28;20060;-77
2022/05/18 04:31:42;;;;;;;4.93;2.63;;;;;;;;;;5074183;28;20028;-77
2022/05/18 04:34:08;;;;;;;4.78;2.40;;;;;;;;;;5056438;28;20035;-78
2022/05/18 04:36:33;;;;;;;3.72;2.30;;;;;;;;;;5056608;28;20025;-78
2022/05/18 04:38:58;;;;;;;4.95;2.70;;;;;;;;;;5075184;28;20085;-78
2022/05/18 04:41:24;;;;;;;6.07;2.58;;;;;;;;;;5073265;28;20493;-78
2022/05/18 04:43:49;;;;;;;5.43;2.70;;;;;;;;;;5056496;28;20040;-79
2022/05/18 04:46:15;;;;;;;10.18;3.10;;;;;;;;;;5056228;28;20032;-80
2022/05/18 04:48:41;;;;;;;9.07;3.38;;;;;;;;;;5056814;28;20032;-83
2022/05/18 04:51:06;;;;;;;5.97;3.00;;;;;;;;;;5073136;28;20029;-82
2022/05/18 04:53:35;;;;;;;11.60;4.00;;;;;;;;;;5058131;28;20090;-84
2022/05/18 04:56:02;;;;;;;7.53;2.95;;;;;;;;;;5058243;28;20017;-86
2022/05/18 04:58:27;;;;;;;4.88;3.13;;;;;;;;;;5073658;28;20093;-84
2022/05/18 05:01:02;;;;;;;7.63;2.83;;;;;;;;;;5059648;28;20069;-84
2022/05/18 05:03:28;;;;;;;13.50;3.60;;;;;;;;;;5053317;28;20021;-84
2022/05/18 05:05:53;;;;;;;8.32;3.40;;;;;;;;;;5054335;28;20075;-83
2022/05/18 05:08:19;;;;;;;9.48;3.38;;;;;;;;;;5036302;28;20471;-82
2022/05/18 05:10:45;;;;;;;8.35;3.03;;;;;;;;;;5054392;28;20136;-83
2022/05/18 05:13:10;;;;;;;9.10;2.83;;;;;;;;;;5052718;28;20047;-80
2022/05/18 05:15:37;;;;;;;10.43;3.35;;;;;;;;;;5035953;28;20479;-80
2022/05/18 05:18:02;;;;;;;8.90;3.05;;;;;;;;;;5036802;28;20033;-80
2022/05/18 05:20:27;;;;;;;9.82;4.00;;;;;;;;;;5054365;28;20082;-80
2022/05/18 05:22:53;;;;;;;10.77;3.20;;;;;;;;;;5054546;28;20113;-80
2022/05/18 05:25:18;;;;;;;10.52;3.10;;;;;;;;;;5037509;28;20044;-80
2022/05/18 05:27:44;;;;;;;10.32;2.55;;;;;;;;;;5037180;28;20412;-79
2022/05/18 05:30:10;;;;;;;7.25;2.83;;;;;;;;;;5055534;28;20043;-81
2022/05/18 05:32:36;;;;;;;7.03;2.65;;;;;;;;;;5054277;28;20033;-80
2022/05/18 05:35:02;;;;;;;9.13;3.03;;;;;;;;;;5052498;28;20025;-80
2022/05/18 05:37:27;;;;;;;5.72;2.70;;;;;;;;;;5035858;28;20411;-80
2022/05/18 05:39:53;;;;;;;4.97;2.42;;;;;;;;;;5035259;28;20043;-80
2022/05/18 05:42:18;;;;;;;5.53;2.38;;;;;;;;;;5051618;28;20064;-80
2022/05/18 05:44:44;;;;;;;9.48;2.90;;;;;;;;;;5052306;28;20044;-80
2022/05/18 05:47:11;;;;;;;5.43;2.13;;;;;;;;;;5054603;28;20029;-79
2022/05/18 05:49:40;;;;;;;4.20;2.05;;;;;;;;;;5053888;28;20167;-80
2022/05/18 05:52:07;;;;;;;3.38;2.17;;;;;;;;;;5053468;28;20040;-80
2022/05/18 05:54:33;;;;;;;2.83;1.83;;;;;;;;;;5052632;28;20550;-79
2022/05/18 05:57:01;;;;;;;3.80;2.10;;;;;;;;;;5052767;28;20053;-80
2022/05/18 05:59:27;;;;;;;4.47;2.28;;;;;;;;;;5057012;28;20556;-80
2022/05/18 06:01:52;;;;;;;5.03;2.10;;;;;;;;;;5056288;28;20070;-79
2022/05/18 06:04:18;;;;;;;3.92;1.95;;;;;;;;;;5038385;28;20025;-80
2022/05/18 06:06:44;;;;;;;4.63;2.42;;;;;;;;;;5054031;28;20033;-80
2022/05/18 06:09:09;;;;;;;7.57;2.00;;;;;;;;;;5071785;28;20039;-80
2022/05/18 06:11:36;;;;;;;4.90;2.40;;;;;;;;;;5070480;28;20476;-82
2022/05/18 06:14:02;;;;;;;3.70;2.53;;;;;;;;;;5070765;28;20424;-82
2022/05/18 06:16:27;;;;;;;4.88;2.30;;;;;;;;;;5072250;28;20110;-81
2022/05/18 06:18:52;;;;;;;7.80;2.22;;;;;;;;;;5072005;28;20035;-82
2022/05/18 06:21:18;;;;;;;4.88;2.10;;;;;;;;;;5070790;28;20459;-81
2022/05/18 06:23:43;;;;;;;5.43;2.20;;;;;;;;;;5053180;28;20371;-81
2022/05/18 06:26:09;;;;;;;4.07;2.17;;;;;;;;;;5054028;28;20123;-80
2022/05/18 06:28:40;;;;;;;3.78;1.95;;;;;;;;;;5053793;28;20020;-79
2022/05/18 06:31:05;;;;;;;4.20;2.22;;;;;;;;;;5072049;28;20024;-80
2022/05/18 06:33:31;;;;;;;8.10;2.47;;;;;;;;;;5070501;28;20028;-80
2022/05/18 06:35:56;;;;;;;4.63;2.10;;;;;;;;;;5070345;28;20021;-80
2022/05/18 06:38:23;;;;;;;3.47;2.33;;;;;;;;;;5071556;28;20059;-80
2022/05/18 06:43:32;;;;;;;3.63;2.20;;;;;;;;;;5071920;28;20081;-79
2022/05/18 06:45:58;;;;;;;2.85;2.08;;;;;;;;;;5071862;28;20032;-80
2022/05/18 06:48:24;;;;;;;4.13;2.00;;;;;;;;;;5053966;28;20024;-80
2022/05/18 06:50:50;;;;;;;5.93;2.33;;;;;;;;;;5071740;28;20043;-80
2022/05/18 06:53:15;;;;;;;6.03;2.30;;;;;;;;;;5071429;28;20028;-79
2022/05/18 06:55:40;;;;;;;2.45;1.92;;;;;;;;;;5070014;28;20458;-79
2022/05/18 06:58:06;;;;;;;5.13;2.25;;;;;;;;;;5071863;28;20039;-80
2022/05/18 07:00:31;;;;;;;2.08;1.88;;;;;;;;;;5070387;28;20060;-79
2022/05/18 07:02:56;;;;;;;3.17;2.30;;;;;;;;;;5071517;28;20047;-81
2022/05/18 07:05:22;;;;;;;3.88;2.00;;;;;;;;;;5071535;28;20035;-79
2022/05/18 07:07:48;;;;;;;4.20;2.10;;;;;;;;;;5053661;28;20052;-79
2022/05/18 07:10:13;;;;;;;4.53;2.03;;;;;;;;;;5071825;28;20393;-80
2022/05/18 07:12:39;;;;;;;6.57;2.40;;;;;;;;;;5071854;28;20108;-80
2022/05/18 07:15:05;;;;;;;2.95;2.00;;;;;;;;;;5070519;28;20050;-80
2022/05/18 07:17:31;;;;;;;6.00;2.10;;;;;;;;;;5053843;28;20039;-79
2022/05/18 07:19:56;;;;;;;3.65;2.20;;;;;;;;;;5071867;28;20119;-80
2022/05/18 07:22:21;;;;;;;3.58;2.50;;;;;;;;;;5070646;28;20024;-80
2022/05/18 07:24:47;;;;;;;4.70;2.05;;;;;;;;;;5071763;28;20063;-79
2022/05/18 07:27:12;;;;;;;4.28;2.38;;;;;;;;;;5071594;28;20020;-79
2022/05/18 07:29:37;;;;;;;3.25;2.28;;;;;;;;;;5036862;28;20036;-79
2022/05/18 07:32:12;;;;;;;6.95;2.42;;;;;;;;;;5053697;28;20040;-81
2022/05/18 07:34:38;;;;;;;3.33;2.30;;;;;;;;;;5072185;28;20474;-81
2022/05/18 07:37:05;;;;;;;3.28;2.47;;;;;;;;;;5074315;28;20092;-81
2022/05/18 07:39:31;;;;;;;6.85;2.53;;;;;;;;;;5057490;28;20020;-81
2022/05/18 07:41:58;;;;;;;3.97;2.70;;;;;;;;;;5075395;28;20036;-81
2022/05/18 07:44:24;;;;;;;4.32;2.25;;;;;;;;;;5074051;28;20028;-81
2022/05/18 07:46:50;;;;;;;5.88;2.60;;;;;;;;;;5057255;28;20033;-80
2022/05/18 07:49:15;;;;;;;3.42;2.63;;;;;;;;;;5040612;28;20036;-80
2022/05/18 07:51:41;;;;;;;5.90;2.40;;;;;;;;;;5075264;28;20103;-80
2022/05/18 07:54:06;;;;;;;4.25;2.50;;;;;;;;;;5057374;28;20032;-79
2022/05/18 07:56:34;;;;;;;4.00;2.53;;;;;;;;;;5075007;28;20028;-79
2022/05/18 07:59:00;;;;;;;3.72;2.38;;;;;;;;;;5073799;28;20029;-80
2022/05/18 08:01:25;;;;;;;2.50;2.20;;;;;;;;;;5073542;28;20048;-80
2022/05/18 08:03:51;;;;;;;4.07;2.78;;;;;;;;;;5073910;28;20333;-79
2022/05/18 08:06:16;;;;;;;3.95;2.92;;;;;;;;;;5056822;28;20039;-80
2022/05/18 08:08:42;;;;;;;4.10;2.65;;;;;;;;;;5075227;28;20028;-81
2022/05/18 08:16:36;;;;;;;4.65;2.53;;;;;;;;;;5073908;28;20439;-81
2022/05/18 08:19:01;;;;;;;5.00;2.65;;;;;;;;;;5074871;28;20024;-81
2022/05/18 08:21:27;;;;;;;3.90;2.78;;;;;;;;;;5074867;28;20036;-81
2022/05/18 08:23:52;;;;;;;4.82;2.63;;;;;;;;;;5073538;28;20077;-81
2022/05/18 08:26:18;;;;;;;5.13;2.85;;;;;;;;;;5056682;28;20052;-80
2022/05/18 08:28:44;;;;;;;3.20;2.50;;;;;;;;;;5073389;28;20128;-80
2022/05/18 08:31:09;;;;;;;3.25;2.60;;;;;;;;;;5057051;28;20458;-80
2022/05/18 08:33:35;;;;;;;3.30;2.47;;;;;;;;;;5073262;28;20102;-80
2022/05/18 08:36:03;;;;;;;3.13;2.40;;;;;;;;;;5056451;28;20112;-80
2022/05/18 08:38:29;;;;;;;4.00;2.30;;;;;;;;;;5072967;28;20031;-81
2022/05/18 08:40:59;;;;;;;2.65;2.42;;;;;;;;;;5074695;28;20028;-81
2022/05/18 08:43:31;;;;;;;3.80;2.72;;;;;;;;;;5073246;28;20036;-80
2022/05/18 08:46:11;;;;;;;3.43;2.50;;;;;;;;;;5055967;28;20095;-80
2022/05/18 08:48:46;;;;;;;4.18;2.60;;;;;;;;;;5074821;28;20040;-80
2022/05/18 08:51:30;;;;;;;4.30;2.33;;;;;;;;;;5074322;28;20082;-80
2022/05/18 08:53:59;;;;;;;3.58;2.25;;;;;;;;;;5056290;28;20024;-80
2022/05/18 08:56:44;;;;;;;3.25;2.03;;;;;;;;;;5074406;28;20467;-80
2022/05/18 08:59:25;;;;;;;4.40;2.28;;;;;;;;;;5072988;28;20431;-80
2022/05/18 09:01:55;;;;;;;3.30;2.53;;;;;;;;;;5072994;28;20032;-79
2022/05/18 09:04:24;;;;;;;5.43;2.80;;;;;;;;;;5073187;28;20107;-80
2022/05/18 09:06:52;;;;;;;4.72;2.60;;;;;;;;;;5072688;28;20538;-79
2022/05/18 09:12:24;;;;;;;3.63;2.72;;;;;;;;;;5074152;28;20036;-79
2022/05/18 09:14:50;;;;;;;3.35;2.35;;;;;;;;;;5055959;28;20467;-79
2022/05/18 09:17:43;;;;;;;3.70;2.53;;;;;;;;;;5055963;28;20037;-79
2022/05/18 09:20:40;;;;;;;4.25;2.47;;;;;;;;;;5073903;28;20482;-79
2022/05/18 09:23:30;;;;;;;2.72;2.20;;;;;;;;;;5073917;28;20028;-79
2022/05/18 09:26:11;;;;;;;2.65;2.08;;;;;;;;;;5073497;28;20103;-80
2022/05/18 09:28:53;;;;;;;3.95;2.60;;;;;;;;;;5073861;28;20017;-80
2022/05/18 09:31:47;;;;;;;4.13;2.50;;;;;;;;;;5073547;28;20024;-79
2022/05/18 09:34:36;;;;;;;4.47;2.22;;;;;;;;;;5072257;28;20402;-80
2022/05/18 09:37:15;;;;;;;3.97;2.45;;;;;;;;;;5056108;28;20396;-80
2022/05/18 09:39:49;;;;;;;4.38;2.63;;;;;;;;;;5072056;28;20024;-79
2022/05/18 09:42:18;;;;;;;4.00;2.30;;;;;;;;;;5073107;28;20017;-80
2022/05/18 09:44:56;;;;;;;3.08;2.17;;;;;;;;;;5071838;28;20031;-79
2022/05/18 09:47:24;;;;;;;5.13;2.80;;;;;;;;;;5071735;28;20537;-79
2022/05/18 09:49:54;;;;;;;3.80;2.65;;;;;;;;;;5071794;28;20391;-79
2022/05/18 09:52:24;;;;;;;4.90;2.35;;;;;;;;;;5073026;28;20032;-79
2022/05/18 09:54:51;;;;;;;2.95;2.20;;;;;;;;;;5071924;28;20086;-79
2022/05/18 09:57:31;;;;;;;3.38;2.25;;;;;;;;;;5071504;28;20343;-79
2022/05/18 10:00:09;;;;;;;5.47;2.53;;;;;;;;;;5070857;28;20075;-79
2022/05/18 10:08:14;;;;;;;2.90;2.40;;;;;;;;;;5071841;28;20039;-79
2022/05/18 10:10:41;;;;;;;3.90;2.40;;;;;;;;;;5071269;28;20048;-79
2022/05/18 10:13:13;;;;;;;4.20;2.47;;;;;;;;;;5054874;28;20020;-79
2022/05/18 10:15:45;;;;;;;5.05;2.63;;;;;;;;;;5071254;28;20078;-79
2022/05/18 10:18:23;;;;;;;4.75;2.40;;;;;;;;;;5054694;28;20146;-79
2022/05/18 10:21:13;;;;;;;2.78;2.28;;;;;;;;;;5054273;28;20024;-79
2022/05/18 10:23:43;;;;;;;3.70;2.10;;;;;;;;;;5072463;28;20025;-79
2022/05/18 10:26:10;;;;;;;3.45;2.15;;;;;;;;;;5071031;28;20420;-79
2022/05/18 10:28:40;;;;;;;3.47;2.30;;;;;;;;;;5054490;28;20501;-80
2022/05/18 10:31:08;;;;;;;2.70;2.33;;;;;;;;;;5071193;28;20314;-79
2022/05/18 10:33:39;;;;;;;2.60;2.15;;;;;;;;;;5070961;28;20027;-80
2022/05/18 10:36:14;;;;;;;4.72;2.30;;;;;;;;;;5054153;28;20031;-79
2022/05/18 10:38:54;;;;;;;3.38;2.30;;;;;;;;;;5054158;28;20412;-79
2022/05/18 10:41:24;;;;;;;4.05;2.40;;;;;;;;;;5054232;28;20063;-80
2022/05/18 10:44:01;;;;;;;3.78;2.15;;;;;;;;;;5054377;28;20032;-80
2022/05/18 10:46:46;;;;;;;5.40;2.75;;;;;;;;;;5070978;28;20354;-79
2022/05/18 10:49:31;;;;;;;8.63;3.10;;;;;;;;;;5071056;28;20028;-79
2022/05/18 10:52:12;;;;;;;7.38;3.22;;;;;;;;;;5071160;28;20032;-79
2022/05/18 10:54:38;;;;;;;4.63;2.15;;;;;;;;;;5054158;28;20032;-79
2022/05/18 10:57:16;;;;;;;3.53;2.55;;;;;;;;;;5072328;28;20386;-79
2022/05/18 10:59:57;;;;;;;3.15;2.00;;;;;;;;;;5071477;28;20056;-79
2022/05/18 11:02:27;;;;;;;3.25;2.00;;;;;;;;;;5055220;28;20024;-80
2022/05/18 11:05:15;;;;;;;5.50;2.17;;;;;;;;;;5073493;28;20044;-79
2022/05/18 11:07:42;;;;;;;2.70;1.95;;;;;;;;;;5073544;28;20120;-80
2022/05/18 11:10:07;;;;;;;3.35;2.20;;;;;;;;;;5054816;28;20119;-79
2022/05/18 11:12:51;;;;;;;3.25;2.22;;;;;;;;;;5053915;28;20068;-80
2022/05/18 11:15:35;;;;;;;3.60;1.95;;;;;;;;;;5070800;28;20029;-80
2022/05/18 11:18:10;;;;;;;3.33;1.90;;;;;;;;;;5070941;28;20479;-82
2022/05/18 11:21:24;;;;;;;4.22;1.65;;;;;;;;;;5071392;28;20025;-80
2022/05/18 11:24:16;;;;;;;2.70;1.67;;;;;;;;;;5018909;28;20049;-82
2022/05/18 11:27:03;;;;;;;2.75;1.80;;;;;;;;;;5072153;28;20020;-83
2022/05/18 11:29:41;;;;;;;2.63;1.80;;;;;;;;;;5054659;28;20437;-81
2022/05/18 11:32:31;;;;;;;2.83;2.00;;;;;;;;;;5054627;28;20025;-80
2022/05/18 11:35:07;;;;;;;3.13;1.90;;;;;;;;;;5072862;28;20029;-83
2022/05/18 11:37:35;;;;;;;4.03;1.98;;;;;;;;;;5072205;28;20108;-82
2022/05/18 11:40:06;;;;;;;2.75;1.77;;;;;;;;;;5071812;28;20021;-82
2022/05/18 11:42:41;;;;;;;4.85;1.95;;;;;;;;;;5072099;28;20021;-82
2022/05/18 11:45:25;;;;;;;3.25;1.63;;;;;;;;;;5053732;28;20484;-83
2022/05/18 11:48:07;;;;;;;2.35;1.52;;;;;;;;;;5072156;28;20047;-83
2022/05/18 11:50:51;;;;;;;3.95;1.42;;;;;;;;;;5070558;28;20031;-83
2022/05/18 11:53:45;;;;;;;2.28;1.60;;;;;;;;;;5053674;28;20395;-85
2022/05/18 11:56:36;;;;;;;3.92;1.50;;;;;;;;;;5053717;28;20016;-85
2022/05/18 11:59:29;;;;;;;2.90;1.88;;;;;;;;;;5054212;28;20123;-84
2022/05/18 12:02:20;;;;;;;3.63;1.80;;;;;;;;;;5053604;28;20556;-84
2022/05/18 12:04:54;;;;;;;2.22;1.60;;;;;;;;;;5054032;28;20356;-82
2022/05/18 12:07:57;;;;;;;8.65;1.67;;;;;;;;;;5053239;28;20097;-82
2022/05/18 12:10:39;;;;;;;3.78;1.60;;;;;;;;;;5071406;28;20064;-83
2022/05/18 12:13:23;;;;;;;3.08;1.50;;;;;;;;;;5053301;28;20052;-83
2022/05/18 12:16:18;;;;;;;2.75;1.40;;;;;;;;;;5053926;28;20025;-82
2022/05/18 12:18:48;;;;;;;2.00;1.40;;;;;;;;;;5071602;28;20493;-83
2022/05/18 12:21:27;;;;;;;2.45;1.45;;;;;;;;;;5053541;28;20542;-83
2022/05/18 12:24:00;;;;;;;9.20;3.15;;;;;;;;;;5073979;28;20028;-83
2022/05/18 12:26:26;;;;;;;1.85;1.40;;;;;;;;;;5075328;28;20032;-84
2022/05/18 12:28:52;;;;;;;3.95;1.42;;;;;;;;;;5077906;28;20035;-83
2022/05/18 12:31:18;;;;;;;7.63;1.60;;;;;;;;;;5060041;28;20128;-84
2022/05/18 12:34:12;;;;;;;4.65;1.90;;;;;;;;;;5074325;28;20132;-84
2022/05/18 12:36:55;;;;;;;4.15;1.50;;;;;;;;;;5069479;28;20044;-84
2022/05/18 12:39:44;;;;;;;3.30;1.35;;;;;;;;;;5040433;28;20447;-84
2022/05/18 12:42:16;;;;;;;8.52;1.73;;;;;;;;;;5073927;28;20099;-84
2022/05/18 12:45:09;;;;;;;2.55;1.60;;;;;;;;;;5073912;28;20020;-87
2022/05/18 12:47:52;;;;;;;2.22;1.40;;;;;;;;;;5074809;28;20049;-86
2022/05/18 12:50:41;;;;;;;2.17;1.58;;;;;;;;;;5074229;28;20035;-85
2022/05/18 12:53:23;;;;;;;4.25;1.70;;;;;;;;;;5058196;28;20070;-87
2022/05/18 12:56:11;;;;;;;3.85;1.50;;;;;;;;;;5076253;28;20027;-88
2022/05/18 12:58:43;;;;;;;8.57;2.90;;;;;;;;;;5058694;28;20029;-87
2022/05/18 13:01:12;;;;;;;7.45;2.42;;;;;;;;;;5055723;28;20045;-91
2022/05/18 13:04:01;;;;;;;6.95;1.80;;;;;;;;;;5073667;28;20040;-90
2022/05/18 13:06:36;;;;;;;3.90;2.08;;;;;;;;;;5073750;28;20025;-91
2022/05/18 13:09:23;;;;;;;5.38;2.13;;;;;;;;;;5058203;28;20025;-91
2022/05/18 13:12:02;;;;;;;4.75;2.10;;;;;;;;;;5057231;28;20337;-91
2022/05/18 13:14:37;;;;;;;4.80;2.15;;;;;;;;;;5056499;28;20031;-89
2022/05/18 13:17:14;;;;;;;5.93;2.20;;;;;;;;;;5054955;28;20024;-89
2022/05/18 13:20:04;;;;;;;4.07;1.85;;;;;;;;;;5070316;28;20046;-89
2022/05/18 13:22:39;;;;;;;6.50;2.30;;;;;;;;;;5053986;28;20052;-87
2022/05/18 13:25:05;;;;;;;8.27;2.47;;;;;;;;;;5053941;28;20391;-88
2022/05/18 13:27:40;;;;;;;4.03;2.00;;;;;;;;;;5054692;28;20052;-86
2022/05/18 13:30:10;;;;;;;4.50;2.00;;;;;;;;;;5053292;28;20502;-89
2022/05/18 13:32:37;;;;;;;5.63;2.00;;;;;;;;;;5070093;28;20089;-86
2022/05/18 13:35:22;;;;;;;6.20;2.05;;;;;;;;;;5070563;28;20029;-87
2022/05/18 13:38:02;;;;;;;4.32;1.80;;;;;;;;;;5069763;28;20025;-86
2022/05/18 13:40:29;;;;;;;4.43;2.20;;;;;;;;;;5053637;28;20036;-88
2022/05/18 13:43:04;;;;;;;7.57;1.90;;;;;;;;;;5053277;28;20363;-84
2022/05/18 13:45:31;;;;;;;3.38;1.70;;;;;;;;;;5052238;28;20027;-83
2022/05/18 13:47:58;;;;;;;2.55;1.67;;;;;;;;;;5052184;28;20056;-84
2022/05/18 13:50:57;;;;;;;4.50;1.95;;;;;;;;;;5051922;28;20090;-84
2022/05/18 13:53:27;;;;;;;3.58;1.85;;;;;;;;;;5035039;28;20067;-85
2022/05/18 13:55:56;;;;;;;5.20;1.85;;;;;;;;;;5068552;28;20381;-83
2022/05/18 13:58:22;;;;;;;4.25;1.60;;;;;;;;;;5068816;28;20021;-86
2022/05/18 14:01:02;;;;;;;5.05;1.92;;;;;;;;;;5067835;28;20114;-86
2022/05/18 14:03:35;;;;;;;4.05;1.73;;;;;;;;;;5072256;28;20108;-82
2022/05/18 14:06:07;;;;;;;2.75;1.30;;;;;;;;;;5073270;28;20055;-81
2022/05/18 14:08:36;;;;;;;5.18;2.13;;;;;;;;;;5071727;28;20101;-83
2022/05/18 14:11:04;;;;;;;3.50;1.50;;;;;;;;;;5055983;28;20029;-82
2022/05/18 14:13:29;;;;;;;3.58;1.50;;;;;;;;;;5057558;28;20518;-83
2022/05/18 14:15:56;;;;;;;5.90;1.83;;;;;;;;;;5076821;28;20052;-84
2022/05/18 14:18:26;;;;;;;4.85;1.83;;;;;;;;;;5058828;28;20062;-83
2022/05/18 14:20:54;;;;;;;3.47;1.65;;;;;;;;;;5058236;28;20028;-84
2022/05/18 14:23:24;;;;;;;3.40;1.80;;;;;;;;;;5059153;28;20035;-84
2022/05/18 14:25:53;;;;;;;1.80;1.40;;;;;;;;;;5058175;28;20459;-85
2022/05/18 14:28:25;;;;;;;4.60;1.70;;;;;;;;;;5042162;28;20086;-85
2022/05/18 14:30:50;;;;;;;3.60;1.80;;;;;;;;;;5057655;28;20038;-84
2022/05/18 14:33:36;;;;;;;4.10;1.50;;;;;;;;;;5057628;28;20543;-81
2022/05/18 14:36:06;;;;;;;3.50;1.80;;;;;;;;;;5055776;28;20334;-85
2022/05/18 14:38:34;;;;;;;5.38;1.90;;;;;;;;;;5057673;28;20039;-84
2022/05/18 14:41:04;;;;;;;1.55;1.45;;;;;;;;;;5058103;28;20016;-81
2022/05/18 14:43:32;;;;;;;3.78;1.55;;;;;;;;;;5073920;28;20427;-82
2022/05/18 14:46:29;;;;;;;2.70;1.80;;;;;;;;;;5056332;28;20051;-82
2022/05/18 14:49:12;;;;;;;3.40;2.00;;;;;;;;;;5067945;28;20048;-82
2022/05/18 14:51:42;;;;;;;4.82;1.92;;;;;;;;;;5057912;28;20028;-80
2022/05/18 14:54:18;;;;;;;2.88;2.00;;;;;;;;;;5055018;28;20418;-81
2022/05/18 14:56:47;;;;;;;2.60;1.60;;;;;;;;;;5072438;28;20126;-81
2022/05/18 14:59:15;;;;;;;2.97;1.52;;;;;;;;;;5073535;28;20107;-81
2022/05/18 15:01:49;;;;;;;4.25;1.73;;;;;;;;;;5074135;28;20012;-83
2022/05/18 15:04:26;;;;;;;4.88;1.90;;;;;;;;;;5054476;28;20089;-81
2022/05/18 15:06:53;;;;;;;3.17;1.83;;;;;;;;;;5070751;28;20029;-82
2022/05/18 15:09:25;;;;;;;2.47;2.13;;;;;;;;;;5037732;28;20032;-81
2022/05/18 15:12:00;;;;;;;5.55;2.10;;;;;;;;;;5070855;28;20021;-81
2022/05/18 15:14:35;;;;;;;2.40;1.67;;;;;;;;;;5054208;28;20016;-82
2022/05/18 15:17:02;;;;;;;3.30;1.88;;;;;;;;;;5053756;28;20093;-82
2022/05/18 15:19:35;;;;;;;8.07;2.25;;;;;;;;;;5053987;28;20028;-81
2022/05/18 15:22:21;;;;;;;2.70;1.80;;;;;;;;;;5072027;28;20029;-80
2022/05/18 15:24:47;;;;;;;3.28;1.75;;;;;;;;;;5070672;28;20038;-83